Time;durP1;ratioP1;P1;durP2;ratioP2;P2;SDS_P1;SDS_P2;PMS_P1;PMS_P2;Temp;Humidity;BMP_temperature;BMP_pressure;BME280_temperature;BME280_humidity;BME280_pressure;Samples;Min_cycle;Max_cycle;Signal;HPM_P1;HPM_P2
2023/09/29 00:00:12;;;;;;;11.02;5.30;;;12.70;99.90;;;;;;5051367;28;20074;-76
2023/09/29 00:02:38;;;;;;;12.80;5.53;;;12.70;99.90;;;;;;5051573;28;20029;-76
2023/09/29 00:05:04;;;;;;;12.70;5.78;;;12.70;99.90;;;;;;5049676;28;20487;-76
2023/09/29 00:07:30;;;;;;;9.82;5.40;;;12.70;99.90;;;;;;5052072;28;20029;-76
2023/09/29 00:09:55;;;;;;;12.90;5.60;;;12.60;99.90;;;;;;5050587;28;20427;-76
2023/09/29 00:12:21;;;;;;;11.10;4.75;;;12.60;99.90;;;;;;5051769;28;20025;-76
2023/09/29 00:14:47;;;;;;;15.25;5.68;;;12.60;99.90;;;;;;5051596;28;20068;-76
2023/09/29 00:17:13;;;;;;;11.55;4.90;;;12.60;99.90;;;;;;5049496;28;20091;-75
2023/09/29 00:19:39;;;;;;;8.43;4.97;;;12.60;99.90;;;;;;5051675;28;20025;-76
2023/09/29 00:22:04;;;;;;;14.15;5.15;;;12.50;99.90;;;;;;5050376;28;20025;-76
2023/09/29 00:24:30;;;;;;;13.38;5.68;;;12.60;99.90;;;;;;5051837;28;20033;-76
2023/09/29 00:26:55;;;;;;;11.77;5.57;;;12.60;99.90;;;;;;5050568;28;20029;-76
2023/09/29 00:29:21;;;;;;;10.85;5.57;;;12.60;99.90;;;;;;5050343;28;20025;-76
2023/09/29 00:31:47;;;;;;;11.02;4.90;;;12.60;99.90;;;;;;5051247;28;20021;-76
2023/09/29 00:34:13;;;;;;;11.13;5.30;;;12.50;99.90;;;;;;5050792;28;20252;-76
2023/09/29 00:36:39;;;;;;;12.68;5.22;;;12.50;99.90;;;;;;5051241;28;20053;-76
2023/09/29 00:39:08;;;;;;;10.93;5.15;;;12.50;99.90;;;;;;5050393;28;20087;-76
2023/09/29 00:41:33;;;;;;;12.57;5.30;;;12.50;99.90;;;;;;5049840;28;20484;-77
2023/09/29 00:43:59;;;;;;;11.57;5.50;;;12.40;99.90;;;;;;5048801;28;20038;-76
2023/09/29 00:46:25;;;;;;;11.88;5.30;;;12.40;99.90;;;;;;5049245;28;20035;-77
2023/09/29 00:48:52;;;;;;;9.90;4.97;;;12.40;99.90;;;;;;5051529;28;20438;-77
2023/09/29 00:51:20;;;;;;;10.73;4.95;;;12.40;99.90;;;;;;5050844;28;20036;-77
2023/09/29 00:53:48;;;;;;;8.45;4.80;;;12.30;99.90;;;;;;5051320;28;20029;-77
2023/09/29 00:56:14;;;;;;;7.90;4.70;;;12.20;99.90;;;;;;5050301;28;20321;-76
2023/09/29 00:58:40;;;;;;;11.32;5.20;;;12.30;99.90;;;;;;5050817;28;20108;-76
2023/09/29 01:01:11;;;;;;;9.00;5.28;;;12.30;99.90;;;;;;5050030;28;20025;-76
2023/09/29 01:03:37;;;;;;;10.90;5.43;;;12.30;99.90;;;;;;5050522;28;20025;-76
2023/09/29 01:06:06;;;;;;;10.27;5.03;;;12.30;99.90;;;;;;5048007;28;20409;-76
2023/09/29 01:08:32;;;;;;;9.30;4.45;;;12.40;99.90;;;;;;5050658;28;20484;-76
2023/09/29 01:10:57;;;;;;;9.18;4.82;;;12.30;99.90;;;;;;5050380;28;20025;-76
2023/09/29 01:13:23;;;;;;;13.60;4.95;;;12.30;99.90;;;;;;5050839;28;20040;-76
2023/09/29 01:15:49;;;;;;;9.20;4.85;;;12.20;99.90;;;;;;5050397;28;20061;-76
2023/09/29 01:18:16;;;;;;;11.25;5.07;;;12.20;99.90;;;;;;5050453;28;20025;-77
2023/09/29 01:20:43;;;;;;;9.73;4.80;;;12.10;99.90;;;;;;5050996;28;20045;-77
2023/09/29 01:23:09;;;;;;;11.70;5.00;;;12.00;99.90;;;;;;5049524;28;20032;-76
2023/09/29 01:25:36;;;;;;;9.57;4.78;;;12.00;99.90;;;;;;5051658;28;20033;-77
2023/09/29 01:28:07;;;;;;;9.20;5.10;;;12.00;99.90;;;;;;5049415;28;20044;-77
2023/09/29 01:30:33;;;;;;;14.07;5.32;;;12.00;99.90;;;;;;5050459;28;20071;-77
2023/09/29 01:32:59;;;;;;;8.85;5.20;;;12.00;99.90;;;;;;5049199;28;20131;-77
2023/09/29 01:35:25;;;;;;;9.27;5.10;;;11.80;99.90;;;;;;5048953;28;20139;-77
2023/09/29 01:37:53;;;;;;;9.50;4.75;;;11.80;99.90;;;;;;5049377;28;20055;-77
2023/09/29 01:40:22;;;;;;;9.43;4.95;;;11.80;99.90;;;;;;5047849;28;20128;-76
2023/09/29 01:42:49;;;;;;;10.55;6.03;;;11.80;99.90;;;;;;5050446;28;20194;-76
2023/09/29 01:45:15;;;;;;;11.73;5.65;;;11.80;99.90;;;;;;5049562;28;20307;-77
2023/09/29 01:47:45;;;;;;;11.82;5.57;;;11.80;99.90;;;;;;5049678;28;20051;-77
2023/09/29 01:50:14;;;;;;;12.43;5.72;;;11.80;99.90;;;;;;5049458;28;20035;-77
2023/09/29 01:52:41;;;;;;;9.68;5.15;;;11.80;99.90;;;;;;5050147;28;20021;-77
2023/09/29 01:55:09;;;;;;;9.73;5.35;;;11.80;99.90;;;;;;5048795;28;20079;-76
2023/09/29 01:57:35;;;;;;;10.70;5.95;;;11.80;99.90;;;;;;5049655;28;20032;-77
2023/09/29 02:00:01;;;;;;;13.05;5.75;;;11.80;99.90;;;;;;5049061;28;20033;-75
2023/09/29 02:02:27;;;;;;;13.95;5.53;;;11.80;99.90;;;;;;5049874;28;20027;-75
2023/09/29 02:04:52;;;;;;;9.48;5.68;;;11.80;99.90;;;;;;5048300;28;20033;-75
2023/09/29 02:07:19;;;;;;;11.25;5.38;;;11.70;99.90;;;;;;5047155;28;20028;-75
2023/09/29 02:09:45;;;;;;;11.20;5.40;;;11.70;99.90;;;;;;5049889;28;20033;-75
2023/09/29 02:12:10;;;;;;;13.90;5.72;;;11.70;99.90;;;;;;5048792;28;20066;-75
2023/09/29 02:14:36;;;;;;;11.65;5.40;;;11.70;99.90;;;;;;5049512;28;20737;-76
2023/09/29 02:17:04;;;;;;;12.68;5.95;;;11.70;99.90;;;;;;5047614;28;20104;-76
2023/09/29 02:19:36;;;;;;;10.63;5.40;;;11.70;99.90;;;;;;5049488;28;20033;-75
2023/09/29 02:22:04;;;;;;;8.13;5.28;;;11.70;99.90;;;;;;5048938;28;20051;-76
2023/09/29 02:24:30;;;;;;;8.50;5.20;;;11.70;99.90;;;;;;5049007;28;20358;-75
2023/09/29 02:26:56;;;;;;;10.07;5.18;;;11.60;99.90;;;;;;5049069;28;20157;-75
2023/09/29 02:29:21;;;;;;;8.57;4.88;;;11.60;99.90;;;;;;5048805;28;20461;-75
2023/09/29 02:31:47;;;;;;;8.98;5.18;;;11.50;99.90;;;;;;5048956;28;20044;-75
2023/09/29 02:34:15;;;;;;;10.52;4.85;;;11.50;99.90;;;;;;5048152;28;20041;-75
2023/09/29 02:36:40;;;;;;;9.57;5.00;;;11.40;99.90;;;;;;5048770;28;20041;-75
2023/09/29 02:39:08;;;;;;;10.20;5.40;;;11.40;99.90;;;;;;5048539;28;20063;-75
2023/09/29 02:41:35;;;;;;;9.27;4.95;;;11.40;99.90;;;;;;5049268;28;20028;-74
2023/09/29 02:44:01;;;;;;;11.63;5.45;;;11.50;99.90;;;;;;5048361;28;20551;-74
2023/09/29 02:46:27;;;;;;;8.98;4.63;;;11.50;99.90;;;;;;5048817;28;20033;-74
2023/09/29 02:48:52;;;;;;;9.52;5.30;;;11.40;99.90;;;;;;5048764;28;20037;-74
2023/09/29 02:51:19;;;;;;;9.55;5.03;;;11.40;99.90;;;;;;5046682;28;20259;-74
2023/09/29 02:53:49;;;;;;;8.80;4.95;;;11.30;99.90;;;;;;5048847;28;20033;-75
2023/09/29 02:56:16;;;;;;;10.88;5.20;;;11.20;99.90;;;;;;5047987;28;20045;-75
2023/09/29 02:58:44;;;;;;;8.20;5.00;;;11.20;99.90;;;;;;5048711;28;20394;-74
2023/09/29 03:01:12;;;;;;;10.70;5.03;;;11.20;99.90;;;;;;5047946;28;20107;-74
2023/09/29 03:03:45;;;;;;;9.85;5.03;;;11.30;99.90;;;;;;5048448;28;20052;-75
2023/09/29 03:06:16;;;;;;;8.65;4.65;;;11.30;99.90;;;;;;5047970;28;20036;-75
2023/09/29 03:08:42;;;;;;;11.13;5.20;;;11.30;99.90;;;;;;5048833;28;20025;-74
2023/09/29 03:11:09;;;;;;;9.63;5.50;;;11.30;99.90;;;;;;5047790;28;20327;-75
2023/09/29 03:13:37;;;;;;;13.07;5.63;;;11.30;99.90;;;;;;5048224;28;20099;-75
2023/09/29 03:16:06;;;;;;;9.35;5.28;;;11.30;99.90;;;;;;5048017;28;20055;-76
2023/09/29 03:18:31;;;;;;;8.85;5.10;;;11.30;99.90;;;;;;5047156;28;20354;-77
2023/09/29 03:20:58;;;;;;;9.70;5.53;;;11.30;99.90;;;;;;5048726;28;20029;-78
2023/09/29 03:23:24;;;;;;;9.45;5.65;;;11.30;99.90;;;;;;5047259;28;20654;-77
2023/09/29 03:25:49;;;;;;;10.60;5.43;;;11.30;99.90;;;;;;5048235;28;20098;-77
2023/09/29 03:28:16;;;;;;;10.25;5.40;;;11.20;99.90;;;;;;5047739;28;20037;-78
2023/09/29 03:30:42;;;;;;;9.43;5.45;;;11.20;99.90;;;;;;5048039;28;20036;-78
2023/09/29 03:33:08;;;;;;;12.20;5.95;;;11.10;99.90;;;;;;5046754;28;20025;-77
2023/09/29 03:35:33;;;;;;;9.85;5.80;;;11.10;99.90;;;;;;5048095;28;20041;-77
2023/09/29 03:38:04;;;;;;;12.27;5.10;;;11.10;99.90;;;;;;5047953;28;20091;-77
2023/09/29 03:40:31;;;;;;;9.10;4.85;;;11.00;99.90;;;;;;5048292;28;20473;-77
2023/09/29 03:42:57;;;;;;;11.13;4.68;;;11.00;99.90;;;;;;5047849;28;20420;-74
2023/09/29 03:45:23;;;;;;;10.85;4.97;;;11.00;99.90;;;;;;5046253;28;20630;-74
2023/09/29 03:47:49;;;;;;;9.30;4.97;;;10.90;99.90;;;;;;5048093;28;20032;-75
2023/09/29 03:50:14;;;;;;;11.15;4.75;;;10.90;99.90;;;;;;5047171;28;20052;-74
2023/09/29 03:52:42;;;;;;;10.10;4.45;;;10.90;99.90;;;;;;5048141;28;20021;-74
2023/09/29 03:55:12;;;;;;;8.05;4.63;;;10.80;99.90;;;;;;5046115;28;20076;-74
2023/09/29 03:57:38;;;;;;;8.07;4.43;;;10.80;99.90;;;;;;5048324;28;20058;-75
2023/09/29 04:00:11;;;;;;;9.02;4.25;;;10.80;99.90;;;;;;5047494;28;20270;-73
2023/09/29 04:02:36;;;;;;;6.63;4.05;;;10.80;99.90;;;;;;5047716;28;20103;-74
2023/09/29 04:05:03;;;;;;;11.32;4.70;;;10.80;99.90;;;;;;5048015;28;20116;-73
2023/09/29 04:07:29;;;;;;;8.20;5.00;;;10.80;99.90;;;;;;5047835;28;20029;-73
2023/09/29 04:09:55;;;;;;;10.10;4.63;;;10.80;99.90;;;;;;5047701;28;20040;-74
2023/09/29 04:12:21;;;;;;;9.70;5.20;;;10.80;99.90;;;;;;5046985;28;20056;-74
2023/09/29 04:14:46;;;;;;;7.50;4.43;;;10.80;99.90;;;;;;5047892;28;20366;-74
2023/09/29 04:17:13;;;;;;;9.00;4.85;;;10.80;99.90;;;;;;5047206;28;20032;-74
2023/09/29 04:19:38;;;;;;;10.95;4.63;;;10.70;99.90;;;;;;5048142;28;20025;-74
2023/09/29 04:22:04;;;;;;;8.93;4.80;;;10.60;99.90;;;;;;5047591;28;20036;-73
2023/09/29 04:24:30;;;;;;;12.40;4.95;;;10.70;99.90;;;;;;5045425;28;20193;-75
2023/09/29 04:26:56;;;;;;;9.35;4.85;;;10.70;99.90;;;;;;5047788;28;20040;-74
2023/09/29 04:29:22;;;;;;;8.45;5.00;;;10.70;99.90;;;;;;5046990;28;20025;-74
2023/09/29 04:31:47;;;;;;;9.63;4.57;;;10.70;99.90;;;;;;5047846;28;20063;-74
2023/09/29 04:34:13;;;;;;;9.25;4.63;;;10.70;99.90;;;;;;5045389;28;20041;-74
2023/09/29 04:36:40;;;;;;;7.80;4.65;;;10.70;99.90;;;;;;5047227;28;20085;-74
2023/09/29 04:39:06;;;;;;;7.40;4.80;;;10.60;99.90;;;;;;5045867;28;20045;-73
2023/09/29 04:41:32;;;;;;;9.63;4.78;;;10.60;99.90;;;;;;5049940;28;20100;-74
2023/09/29 04:43:57;;;;;;;7.88;4.70;;;10.50;99.90;;;;;;5051524;28;20488;-74
2023/09/29 04:46:23;;;;;;;9.45;5.00;;;10.50;99.90;;;;;;5050037;28;20052;-74
2023/09/29 04:48:52;;;;;;;8.70;4.55;;;10.50;99.90;;;;;;5050921;28;20029;-74
2023/09/29 04:51:18;;;;;;;8.73;4.43;;;10.50;99.90;;;;;;5050542;28;20045;-74
2023/09/29 04:53:45;;;;;;;9.73;4.90;;;10.50;99.90;;;;;;5051366;28;20100;-74
2023/09/29 04:56:11;;;;;;;10.77;5.30;;;10.50;99.90;;;;;;5050023;28;20033;-74
2023/09/29 04:58:37;;;;;;;11.02;4.95;;;10.50;99.90;;;;;;5051104;28;20032;-73
2023/09/29 05:01:02;;;;;;;10.30;4.85;;;10.60;99.90;;;;;;5051204;28;20078;-74
2023/09/29 05:03:28;;;;;;;10.13;5.35;;;10.60;99.90;;;;;;5049930;28;20145;-74
2023/09/29 05:05:54;;;;;;;12.93;5.40;;;10.70;99.90;;;;;;5050191;28;20052;-74
2023/09/29 05:08:19;;;;;;;9.07;4.95;;;10.60;99.90;;;;;;5050259;28;20036;-74
2023/09/29 05:10:45;;;;;;;7.80;4.78;;;10.60;99.90;;;;;;5048913;28;20029;-74
2023/09/29 05:13:11;;;;;;;10.90;5.55;;;10.50;99.90;;;;;;5048087;28;20025;-74
2023/09/29 05:15:37;;;;;;;8.57;4.80;;;10.50;99.90;;;;;;5050445;28;20040;-74
2023/09/29 05:18:03;;;;;;;9.30;4.50;;;10.50;99.90;;;;;;5049272;28;20736;-74
2023/09/29 05:20:29;;;;;;;8.65;5.18;;;10.50;99.90;;;;;;5049362;28;20021;-74
2023/09/29 05:22:54;;;;;;;12.38;5.40;;;10.60;99.90;;;;;;5050486;28;20105;-74
2023/09/29 05:25:20;;;;;;;9.95;5.10;;;10.60;99.90;;;;;;5047175;28;20465;-74
2023/09/29 05:27:46;;;;;;;9.55;4.82;;;10.60;99.90;;;;;;5050326;28;20108;-75
2023/09/29 05:30:12;;;;;;;9.52;4.20;;;10.60;99.90;;;;;;5049959;28;20033;-74
2023/09/29 05:32:38;;;;;;;10.20;4.78;;;10.60;99.90;;;;;;5049771;28;20083;-75
2023/09/29 05:35:04;;;;;;;8.13;4.30;;;10.60;99.90;;;;;;5038932;28;20069;-75
2023/09/29 05:37:32;;;;;;;9.57;5.53;;;10.60;99.90;;;;;;5033609;28;20468;-75
2023/09/29 05:40:03;;;;;;;9.43;5.10;;;10.50;99.90;;;;;;5049227;28;20072;-74
2023/09/29 05:42:29;;;;;;;9.60;4.93;;;10.40;99.90;;;;;;5048975;28;20598;-74
2023/09/29 05:44:55;;;;;;;9.57;5.18;;;10.30;99.90;;;;;;5047783;28;20096;-74
2023/09/29 05:47:21;;;;;;;10.13;5.60;;;10.30;99.90;;;;;;5048053;28;20037;-75
2023/09/29 05:49:47;;;;;;;8.20;5.60;;;10.40;99.90;;;;;;5049857;28;20449;-75
2023/09/29 05:52:12;;;;;;;9.40;5.07;;;10.40;99.90;;;;;;5048959;28;20091;-73
2023/09/29 05:54:38;;;;;;;9.40;5.07;;;10.40;99.90;;;;;;5048172;28;20045;-74
2023/09/29 05:57:04;;;;;;;12.27;5.82;;;10.40;99.90;;;;;;5042239;28;20044;-75
2023/09/29 05:59:29;;;;;;;11.77;5.38;;;10.50;99.90;;;;;;5047605;28;20033;-75
2023/09/29 06:01:56;;;;;;;12.55;5.13;;;10.50;99.90;;;;;;5050106;28;20100;-76
2023/09/29 06:04:22;;;;;;;11.15;5.55;;;10.50;99.90;;;;;;5048606;28;20029;-76
2023/09/29 06:06:48;;;;;;;14.30;5.03;;;10.50;99.90;;;;;;5043661;28;20060;-76
2023/09/29 06:09:14;;;;;;;8.77;4.88;;;10.50;99.90;;;;;;5047328;28;20044;-74
2023/09/29 06:11:40;;;;;;;8.80;5.07;;;10.50;99.90;;;;;;5048969;28;20440;-76
2023/09/29 06:14:06;;;;;;;12.13;5.25;;;10.60;99.90;;;;;;5042390;28;20090;-76
2023/09/29 06:16:32;;;;;;;11.40;5.22;;;10.70;99.90;;;;;;5045404;28;20021;-76
2023/09/29 06:18:58;;;;;;;9.52;5.22;;;10.80;99.90;;;;;;5047893;28;20032;-75
2023/09/29 06:21:23;;;;;;;12.60;5.07;;;10.80;99.90;;;;;;5047320;28;20465;-74
2023/09/29 06:23:49;;;;;;;13.82;5.57;;;10.80;99.90;;;;;;5049646;28;20044;-75
2023/09/29 06:26:14;;;;;;;9.00;5.13;;;10.90;99.90;;;;;;5048325;28;20040;-74
2023/09/29 06:28:40;;;;;;;9.27;4.97;;;10.90;99.90;;;;;;5048662;28;20029;-78
2023/09/29 06:31:06;;;;;;;9.75;5.55;;;10.90;99.90;;;;;;5037546;28;20037;-77
2023/09/29 06:33:32;;;;;;;10.90;5.22;;;11.00;99.90;;;;;;5044763;28;20033;-77
2023/09/29 06:35:58;;;;;;;9.38;5.45;;;11.20;99.90;;;;;;5042195;28;20071;-77
2023/09/29 06:38:23;;;;;;;11.52;4.95;;;11.40;99.90;;;;;;5046885;28;20205;-76
2023/09/29 06:40:49;;;;;;;14.00;5.35;;;11.50;99.90;;;;;;5047319;28;20064;-77
2023/09/29 06:43:18;;;;;;;10.95;5.70;;;11.70;99.90;;;;;;5047942;28;20400;-75
2023/09/29 06:45:43;;;;;;;11.50;5.45;;;11.90;99.90;;;;;;5042994;28;20554;-76
2023/09/29 06:48:09;;;;;;;13.20;5.53;;;12.00;99.90;;;;;;5048713;28;20034;-76
2023/09/29 06:50:35;;;;;;;14.43;6.03;;;12.10;99.90;;;;;;5043795;28;20118;-76
2023/09/29 06:53:00;;;;;;;10.60;5.07;;;12.20;99.90;;;;;;5045581;28;20127;-76
2023/09/29 06:55:26;;;;;;;9.70;5.47;;;12.30;99.90;;;;;;5045278;28;20045;-76
2023/09/29 06:57:51;;;;;;;14.77;5.82;;;12.40;99.90;;;;;;5046498;28;20025;-75
2023/09/29 07:00:18;;;;;;;14.73;5.80;;;12.60;99.90;;;;;;5042258;28;20050;-76
2023/09/29 07:02:44;;;;;;;9.52;5.25;;;12.70;99.90;;;;;;5046366;28;20114;-76
2023/09/29 07:05:10;;;;;;;12.13;5.45;;;12.90;99.90;;;;;;5041062;28;20037;-76
2023/09/29 07:07:36;;;;;;;9.07;5.55;;;12.90;99.90;;;;;;5043630;28;20037;-76
2023/09/29 07:10:01;;;;;;;9.52;5.20;;;13.10;99.90;;;;;;5048385;28;20029;-76
2023/09/29 07:12:27;;;;;;;11.05;5.82;;;13.20;99.90;;;;;;5043310;28;20060;-76
2023/09/29 07:14:53;;;;;;;9.80;6.10;;;13.40;99.90;;;;;;5042656;28;20044;-79
2023/09/29 07:17:19;;;;;;;16.27;6.05;;;13.50;99.90;;;;;;5050801;28;20477;-77
2023/09/29 07:19:45;;;;;;;9.82;5.97;;;13.50;99.90;;;;;;5049389;28;20448;-71
2023/09/29 07:22:11;;;;;;;14.63;6.65;;;13.50;99.90;;;;;;5036163;28;20045;-71
2023/09/29 07:24:40;;;;;;;14.00;6.53;;;13.60;99.90;;;;;;5040455;28;20063;-70
2023/09/29 07:27:08;;;;;;;12.82;6.55;;;13.80;99.90;;;;;;5046454;28;20120;-71
2023/09/29 07:29:34;;;;;;;11.85;6.13;;;14.10;99.90;;;;;;5047817;28;20022;-71
2023/09/29 07:31:59;;;;;;;11.75;6.82;;;14.40;99.90;;;;;;5048769;28;20032;-70
2023/09/29 07:34:27;;;;;;;11.75;5.95;;;14.60;99.90;;;;;;5047340;28;20041;-71
2023/09/29 07:36:53;;;;;;;10.35;5.90;;;14.90;99.90;;;;;;5048395;28;20382;-71
2023/09/29 07:39:19;;;;;;;9.85;5.80;;;15.20;99.90;;;;;;5047247;28;20033;-71
2023/09/29 07:41:44;;;;;;;17.20;6.18;;;15.50;99.90;;;;;;5047814;28;20531;-71
2023/09/29 07:44:10;;;;;;;13.38;5.93;;;15.70;99.90;;;;;;5048289;28;20079;-70
2023/09/29 07:46:37;;;;;;;13.80;6.10;;;16.00;99.90;;;;;;5047220;28;20035;-71
2023/09/29 07:49:02;;;;;;;12.23;6.50;;;16.30;99.90;;;;;;5048232;28;20125;-71
2023/09/29 07:51:29;;;;;;;15.38;6.05;;;16.40;99.90;;;;;;5047557;28;20116;-71
2023/09/29 07:53:55;;;;;;;9.32;5.78;;;16.60;99.90;;;;;;5048506;28;20029;-68
2023/09/29 07:56:21;;;;;;;11.02;5.60;;;16.80;99.90;;;;;;5047635;28;20038;-68
2023/09/29 07:58:46;;;;;;;10.52;5.15;;;17.10;99.90;;;;;;5048657;28;20377;-68
2023/09/29 08:01:12;;;;;;;9.07;5.35;;;17.30;99.90;;;;;;5046725;28;20040;-69
2023/09/29 08:03:38;;;;;;;14.63;5.45;;;17.50;99.90;;;;;;5047539;28;20017;-69
2023/09/29 08:06:04;;;;;;;10.68;5.28;;;17.70;99.90;;;;;;5048076;28;20036;-69
2023/09/29 08:08:29;;;;;;;9.25;5.30;;;17.80;99.90;;;;;;5047711;28;20032;-68
2023/09/29 08:10:55;;;;;;;10.98;5.30;;;17.90;99.90;;;;;;5048575;28;20078;-68
2023/09/29 08:13:23;;;;;;;13.45;5.15;;;18.00;99.90;;;;;;5047279;28;20449;-68
2023/09/29 08:15:49;;;;;;;9.95;5.80;;;18.10;99.90;;;;;;5049649;28;20041;-68
2023/09/29 08:18:17;;;;;;;11.30;5.13;;;18.20;99.90;;;;;;5051918;28;20158;-68
2023/09/29 08:20:43;;;;;;;8.40;4.93;;;18.40;99.90;;;;;;5051141;28;20703;-71
2023/09/29 08:23:08;;;;;;;9.75;5.15;;;18.50;99.90;;;;;;5051761;28;20025;-69
2023/09/29 08:25:34;;;;;;;12.88;5.18;;;18.60;99.90;;;;;;5050374;28;20032;-69
2023/09/29 08:28:02;;;;;;;8.57;5.07;;;18.50;99.90;;;;;;5051066;28;20029;-68
2023/09/29 08:30:28;;;;;;;9.07;4.97;;;18.50;99.90;;;;;;5050747;28;20083;-68
2023/09/29 08:32:54;;;;;;;10.45;5.13;;;18.50;99.90;;;;;;5051552;28;20028;-69
2023/09/29 08:35:20;;;;;;;8.10;4.75;;;18.50;99.90;;;;;;5050521;28;20041;-68
2023/09/29 08:37:45;;;;;;;14.07;5.22;;;18.60;99.90;;;;;;5050411;28;20114;-68
2023/09/29 08:40:19;;;;;;;9.75;5.80;;;18.80;99.90;;;;;;5051333;28;20037;-68
2023/09/29 08:42:51;;;;;;;14.32;5.40;;;19.00;99.90;;;;;;5051208;28;20090;-68
2023/09/29 08:45:17;;;;;;;10.25;5.45;;;19.20;99.90;;;;;;5050923;28;20041;-68
2023/09/29 08:47:50;;;;;;;10.40;5.10;;;19.30;99.90;;;;;;5050748;28;20055;-68
2023/09/29 08:50:17;;;;;;;9.70;5.00;;;19.50;99.90;;;;;;5051256;28;20029;-68
2023/09/29 08:52:44;;;;;;;9.68;4.57;;;19.70;99.90;;;;;;5050343;28;20017;-69
2023/09/29 08:55:12;;;;;;;15.05;5.22;;;19.80;99.90;;;;;;5051114;28;20068;-68
2023/09/29 08:57:39;;;;;;;11.45;4.85;;;19.90;99.90;;;;;;5050025;28;20041;-68
2023/09/29 09:00:06;;;;;;;9.15;5.28;;;20.00;99.90;;;;;;5051276;28;20039;-68
2023/09/29 09:02:31;;;;;;;7.53;4.68;;;20.10;99.90;;;;;;5050188;28;20426;-68
2023/09/29 09:04:57;;;;;;;9.48;5.07;;;20.20;99.90;;;;;;5050802;28;20115;-69
2023/09/29 09:07:23;;;;;;;10.23;4.93;;;20.30;99.90;;;;;;5049996;28;20071;-68
2023/09/29 09:09:52;;;;;;;13.13;5.25;;;20.40;99.90;;;;;;5050763;28;20426;-68
2023/09/29 09:12:18;;;;;;;9.35;4.40;;;20.40;99.90;;;;;;5050948;28;20024;-68
2023/09/29 09:14:44;;;;;;;9.50;4.80;;;20.60;99.90;;;;;;5049839;28;20501;-68
2023/09/29 09:17:11;;;;;;;10.68;4.95;;;20.70;99.90;;;;;;5050915;28;20033;-69
2023/09/29 09:19:45;;;;;;;9.77;4.60;;;21.00;99.90;;;;;;5049875;28;20029;-71
2023/09/29 09:22:16;;;;;;;12.88;4.55;;;21.20;99.90;;;;;;5045355;28;20053;-71
2023/09/29 09:24:41;;;;;;;9.70;4.82;;;21.40;99.90;;;;;;5032431;28;20745;-68
2023/09/29 09:27:08;;;;;;;9.05;4.00;;;21.50;99.90;;;;;;5029758;28;20181;-68
2023/09/29 09:29:41;;;;;;;8.52;4.57;;;21.50;99.90;;;;;;5036464;28;20028;-68
2023/09/29 09:32:06;;;;;;;7.28;3.95;;;21.60;99.90;;;;;;5050609;28;20028;-68
2023/09/29 09:34:33;;;;;;;7.75;4.03;;;21.60;99.90;;;;;;5049085;28;20789;-68
2023/09/29 09:36:59;;;;;;;7.70;4.45;;;21.70;99.90;;;;;;5049972;28;20400;-68
2023/09/29 09:39:27;;;;;;;7.05;3.90;;;21.70;99.90;;;;;;5049822;28;20037;-68
2023/09/29 09:41:54;;;;;;;11.10;4.53;;;21.80;99.90;;;;;;5050318;28;20455;-69
2023/09/29 09:44:21;;;;;;;8.85;3.78;;;22.00;99.90;;;;;;5050445;28;20108;-68
2023/09/29 09:47:00;;;;;;;9.95;4.03;;;22.20;99.90;;;;;;5049585;28;20108;-68
2023/09/29 09:49:38;;;;;;;8.55;4.00;;;22.40;99.90;;;;;;5049190;28;20098;-68
2023/09/29 09:52:12;;;;;;;7.32;3.65;;;22.70;99.90;;;;;;5049901;28;20481;-68
2023/09/29 09:54:54;;;;;;;7.45;3.63;;;23.00;99.90;;;;;;5049381;28;20037;-68
2023/09/29 09:57:33;;;;;;;12.60;4.00;;;23.20;99.90;;;;;;5049881;28;20388;-68
2023/09/29 10:00:08;;;;;;;8.13;3.73;;;23.30;99.90;;;;;;5050196;28;20112;-68
2023/09/29 10:02:43;;;;;;;6.68;3.53;;;23.60;99.90;;;;;;5049284;28;20060;-68
2023/09/29 10:05:16;;;;;;;12.82;3.70;;;23.80;99.90;;;;;;5048741;28;20052;-68
2023/09/29 10:07:46;;;;;;;9.70;3.10;;;23.80;99.90;;;;;;5048558;28;20079;-68
2023/09/29 10:10:31;;;;;;;5.25;3.15;;;23.90;99.90;;;;;;5039693;28;20044;-68
2023/09/29 10:13:01;;;;;;;6.30;3.60;;;23.90;99.90;;;;;;5049450;28;20412;-68
2023/09/29 10:15:30;;;;;;;7.25;3.22;;;24.20;99.90;;;;;;5047376;28;20131;-68
2023/09/29 10:17:58;;;;;;;5.43;3.30;;;24.30;99.90;;;;;;5049469;28;20432;-67
2023/09/29 10:20:26;;;;;;;6.40;3.63;;;24.40;99.90;;;;;;5045412;28;20033;-68
2023/09/29 10:23:08;;;;;;;10.45;3.45;;;24.60;99.90;;;;;;5047514;28;20058;-68
2023/09/29 10:25:36;;;;;;;6.53;3.47;;;24.90;99.90;;;;;;5045404;28;20072;-68
2023/09/29 10:28:12;;;;;;;6.07;3.42;;;25.00;99.90;;;;;;5029724;28;20033;-68
2023/09/29 10:30:40;;;;;;;13.38;3.70;;;25.10;99.90;;;;;;5047151;28;20025;-67
2023/09/29 10:33:11;;;;;;;8.38;3.38;;;25.20;97.00;;;;;;5048443;28;20717;-67
2023/09/29 10:35:47;;;;;;;9.38;3.38;;;25.20;97.10;;;;;;5047416;28;20509;-68
2023/09/29 10:38:25;;;;;;;9.68;3.47;;;25.20;97.70;;;;;;5048884;28;20138;-67
2023/09/29 10:40:52;;;;;;;4.68;3.15;;;25.30;97.30;;;;;;5044870;28;20068;-67
2023/09/29 10:43:22;;;;;;;6.72;3.45;;;25.40;98.20;;;;;;5046652;28;20036;-67
2023/09/29 10:45:50;;;;;;;10.10;3.53;;;25.40;97.50;;;;;;5043090;28;20082;-67
2023/09/29 10:48:19;;;;;;;6.03;3.35;;;25.60;97.80;;;;;;5046746;28;20107;-67
2023/09/29 10:50:52;;;;;;;5.47;3.63;;;25.60;98.30;;;;;;5043207;28;20041;-68
2023/09/29 10:53:21;;;;;;;6.40;3.42;;;25.90;99.90;;;;;;5047058;28;20393;-67
2023/09/29 10:55:49;;;;;;;4.85;3.08;;;26.00;97.30;;;;;;5046288;28;20058;-67
2023/09/29 10:58:16;;;;;;;6.70;3.67;;;26.10;98.10;;;;;;5046904;28;20067;-68
2023/09/29 11:00:47;;;;;;;7.68;3.35;;;26.20;97.60;;;;;;5048030;28;20036;-67
2023/09/29 11:03:27;;;;;;;5.78;3.20;;;26.20;96.90;;;;;;5048346;28;20552;-67
2023/09/29 11:05:54;;;;;;;6.60;3.20;;;26.20;96.30;;;;;;5047653;28;20120;-68
2023/09/29 11:08:28;;;;;;;5.97;2.72;;;26.30;96.70;;;;;;5046320;28;20041;-67
2023/09/29 11:11:07;;;;;;;6.90;3.17;;;26.40;95.00;;;;;;5030316;28;20033;-68
2023/09/29 11:13:33;;;;;;;5.07;2.97;;;26.40;93.20;;;;;;5044872;28;20040;-67
2023/09/29 11:15:59;;;;;;;7.15;3.20;;;26.40;93.10;;;;;;5028737;28;20377;-67
2023/09/29 11:18:30;;;;;;;7.55;3.22;;;26.50;94.20;;;;;;5038972;28;20431;-67
2023/09/29 11:21:00;;;;;;;7.78;3.22;;;26.70;93.80;;;;;;5047666;28;20037;-67
2023/09/29 11:23:28;;;;;;;8.73;3.03;;;26.70;92.40;;;;;;5041962;28;20112;-67
2023/09/29 11:25:58;;;;;;;5.70;2.78;;;26.70;94.00;;;;;;5040196;28;21071;-67
2023/09/29 11:28:26;;;;;;;5.90;3.38;;;26.80;94.00;;;;;;5045530;28;20512;-67
2023/09/29 11:30:52;;;;;;;7.07;3.13;;;26.90;94.30;;;;;;5044294;28;20025;-67
2023/09/29 11:33:19;;;;;;;6.28;3.25;;;27.00;93.50;;;;;;5043846;28;20410;-67
2023/09/29 11:35:47;;;;;;;8.18;3.47;;;26.90;92.80;;;;;;5046325;28;20049;-68
2023/09/29 11:38:19;;;;;;;11.20;3.10;;;26.90;92.60;;;;;;5047421;28;20056;-67
2023/09/29 11:40:47;;;;;;;5.20;3.30;;;26.30;92.60;;;;;;5045497;28;20094;-67
2023/09/29 11:43:12;;;;;;;5.07;3.50;;;26.00;93.80;;;;;;5046705;28;20033;-68
2023/09/29 11:45:39;;;;;;;4.65;3.22;;;25.70;92.70;;;;;;5045890;28;20548;-67
2023/09/29 11:48:05;;;;;;;9.45;3.58;;;25.50;94.00;;;;;;5047405;28;20028;-67
2023/09/29 11:50:32;;;;;;;6.97;3.33;;;25.50;93.90;;;;;;5047321;28;20060;-68
2023/09/29 11:53:03;;;;;;;7.72;3.50;;;25.60;94.80;;;;;;5051200;28;20052;-68
2023/09/29 11:55:29;;;;;;;5.80;3.38;;;25.70;94.10;;;;;;5048368;28;20048;-68
2023/09/29 11:57:55;;;;;;;8.43;3.30;;;25.80;94.80;;;;;;5049788;28;20041;-68
2023/09/29 12:00:21;;;;;;;7.40;3.88;;;25.90;94.10;;;;;;5047711;28;20043;-68
2023/09/29 12:02:46;;;;;;;8.73;3.13;;;26.30;94.90;;;;;;5049696;28;20036;-68
2023/09/29 12:05:12;;;;;;;7.35;3.72;;;26.70;93.60;;;;;;5049922;28;20493;-67
2023/09/29 12:07:38;;;;;;;8.52;3.80;;;27.10;93.90;;;;;;5050266;28;20033;-68
2023/09/29 12:10:04;;;;;;;7.07;3.55;;;27.10;92.40;;;;;;5045613;28;20057;-68
2023/09/29 12:12:32;;;;;;;9.07;3.80;;;27.10;92.10;;;;;;5051477;28;20029;-68
2023/09/29 12:14:58;;;;;;;5.10;3.20;;;27.10;94.10;;;;;;5049404;28;20098;-68
2023/09/29 12:17:24;;;;;;;13.38;3.80;;;27.40;92.70;;;;;;5049491;28;20060;-68
2023/09/29 12:19:49;;;;;;;5.18;3.42;;;27.40;91.60;;;;;;5045641;28;20524;-68
2023/09/29 12:22:15;;;;;;;14.00;3.88;;;27.50;93.20;;;;;;5050106;28;20033;-68
2023/09/29 12:24:40;;;;;;;8.95;3.72;;;27.40;90.60;;;;;;5046516;28;20025;-68
2023/09/29 12:27:09;;;;;;;8.00;3.45;;;27.40;91.80;;;;;;5050182;28;20028;-67
2023/09/29 12:29:35;;;;;;;6.63;3.63;;;27.40;93.20;;;;;;5045060;28;20025;-67
2023/09/29 12:32:01;;;;;;;8.27;3.47;;;27.40;92.20;;;;;;5046371;28;20021;-67
2023/09/29 12:34:32;;;;;;;9.73;3.70;;;27.40;92.20;;;;;;5048157;28;20162;-68
2023/09/29 12:37:01;;;;;;;11.05;4.03;;;27.30;92.50;;;;;;5048444;28;20131;-68
2023/09/29 12:39:27;;;;;;;8.73;3.42;;;27.40;92.20;;;;;;5043809;28;20067;-67
2023/09/29 12:41:53;;;;;;;10.52;3.63;;;27.50;91.70;;;;;;5046644;28;20053;-68